Mill River, Massachusetts
Current Conditions -  °F | °C
As of 3:06 AM on Saturday 25 Oct 2014 (Local Time) from KPSF Reporting Station
Scattered Clouds Scattered Clouds  
Wind Chill: 37°   Ceiling: Unl
Heat Index: 44°   Visibility: 10mi
Dew Point: 41°   Wind: 16mph
Humidity: 89%   Direction: 290°WNW
Pressure: 29.81"   Gusts: 24mph
Location:  42.11°N, 73.26°W
Report Text: KPSF 250706Z AUTO 29014G21KT 10SM SCT008 07/05 A2981 RMK AO2 T00670050
Loading
Personal Weather Stations






























Interactive Weather Map
Tropical Storm Tracking
New forecast layout! Learn more

10-Day Weather Forecast

Advertisements
Track Severe Weather on mobile